Terminal Aerodrome Forecast
Issued by NWS

Home | Current Version | Previous Version | Text Only | Print | Product List | Glossary On
Versions: 1 2 3 4 5 6 7 8 9 10 11 12 13 14 15 16 17 18 19 20 21 22
000
FTUS45 KBOI 060520
TAFMYL
TAF
KMYL 060520Z 0606/0706 33008KT P6SM SKC
     FM061600 33011G17KT P6SM SCT050 BKN100
     FM070100 34011KT P6SM VCSH BKN030 BKN100=

USA.gov is the U.S. government's official web portal to all federal, state and local government web resources and services.